Colonsay, Canada
Current Conditions -  °F | °C
As of 11:00 PM on Monday 22 Dec 2014 (Local Time) from CYXE Reporting Station
Light Snow Light Snow  
Wind Chill: 19°   Ceiling: 1000
Heat Index: 19°   Visibility: 8mi
Dew Point: 19°   Wind: 3mph
Humidity: 100%   Direction: 260°W
Pressure: 30.03"   Gusts: NA
Location:  51.97°N, 105.87°W
Report Text: CYXE 230500Z 26003KT 8SM -SN BKN010 OVC051 M07/M07 A3003 RMK SC5SC3 SLP205
Loading
Personal Weather Stations






























Interactive Weather Map New forecast layout! Learn more

10-Day Weather Forecast

Advertisements
Track Severe Weather on mobile